createdAt,value
2018-10-11T00:00:00.551Z,46.30
2018-10-11T00:01:05.852Z,44.27
2018-10-11T00:02:10.012Z,42.83
2018-10-11T00:03:14.138Z,43.92
2018-10-11T00:04:18.152Z,46.63
2018-10-11T00:05:36.274Z,44.98
2018-10-11T00:06:45.956Z,46.77
2018-10-11T00:07:50.166Z,45.23
2018-10-11T00:08:54.258Z,46.90
2018-10-11T00:09:58.266Z,44.70
2018-10-11T00:11:02.273Z,47.53
2018-10-11T00:12:11.506Z,48.78
2018-10-11T00:13:22.180Z,46.70
2018-10-11T00:14:26.991Z,48.48
2018-10-11T00:15:37.000Z,48.68
2018-10-11T00:16:40.945Z,45.80
2018-10-11T00:17:44.999Z,47.38
2018-10-11T00:18:49.030Z,46.80
2018-10-11T00:19:53.235Z,46.42
2018-10-11T00:20:57.536Z,46.20
2018-10-11T00:22:01.539Z,44.18
2018-10-11T00:23:05.717Z,47.13
2018-10-11T00:24:09.875Z,46.05
2018-10-11T00:25:13.960Z,44.50
2018-10-11T00:26:18.026Z,46.60
2018-10-11T00:27:21.983Z,51.23
2018-10-11T00:28:26.003Z,52.00
2018-10-11T00:29:35.755Z,50.00
2018-10-11T00:30:39.921Z,48.85
2018-10-11T00:31:43.935Z,48.58
2018-10-11T00:32:47.902Z,50.80
2018-10-11T00:33:51.859Z,47.88
2018-10-11T00:34:55.792Z,47.90
2018-10-11T00:35:59.831Z,48.87
2018-10-11T00:37:09.696Z,46.68
2018-10-11T00:38:13.677Z,44.73
2018-10-11T00:39:17.615Z,44.23
2018-10-11T00:40:21.660Z,49.42
2018-10-11T00:41:26.425Z,49.58
2018-10-11T00:42:30.378Z,45.35
2018-10-11T00:43:34.913Z,48.87
2018-10-11T00:44:38.932Z,46.65
2018-10-11T00:45:42.863Z,44.35
2018-10-11T00:46:48.071Z,45.15
2018-10-11T00:47:52.025Z,45.35
2018-10-11T00:48:56.871Z,43.13
2018-10-11T00:50:00.844Z,50.05
2018-10-11T00:51:05.018Z,45.73
2018-10-11T00:52:09.661Z,42.25
2018-10-11T00:53:13.576Z,41.63
2018-10-11T00:54:17.707Z,43.87
2018-10-11T00:55:21.739Z,42.90
2018-10-11T00:56:25.726Z,45.23
2018-10-11T00:57:29.813Z,41.58
2018-10-11T00:58:34.126Z,44.42
2018-10-11T00:59:38.103Z,41.83
2018-10-11T01:00:42.099Z,42.85
2018-10-11T01:01:46.290Z,42.20
2018-10-11T01:02:50.288Z,39.92
2018-10-11T01:03:54.810Z,41.37
2018-10-11T01:04:58.774Z,40.60
2018-10-11T01:06:03.049Z,42.67
2018-10-11T01:07:07.074Z,41.48
2018-10-11T01:08:11.111Z,39.85
2018-10-11T01:09:15.632Z,40.92
2018-10-11T01:10:19.879Z,41.20
2018-10-11T01:11:23.943Z,41.83
2018-10-11T01:12:27.960Z,43.05
2018-10-11T01:13:32.009Z,43.80
2018-10-11T01:14:35.962Z,43.52
2018-10-11T01:15:40.602Z,47.17
2018-10-11T01:16:44.657Z,43.75
2018-10-11T01:17:48.730Z,43.02
2018-10-11T01:18:53.084Z,44.38
2018-10-11T01:19:57.307Z,42.90
2018-10-11T01:21:01.363Z,42.83
2018-10-11T01:22:05.321Z,41.92
2018-10-11T01:23:09.298Z,40.78
2018-10-11T01:24:13.344Z,43.65
2018-10-11T01:25:17.396Z,43.75
2018-10-11T01:26:21.402Z,46.68
2018-10-11T01:27:28.327Z,45.30
2018-10-11T01:28:32.331Z,45.98
2018-10-11T01:31:49.875Z,46.63
2018-10-11T01:32:53.849Z,42.53
2018-10-11T01:33:58.067Z,45.23
2018-10-11T01:35:02.442Z,45.33
2018-10-11T01:36:06.756Z,47.27
2018-10-11T01:37:10.683Z,44.27
2018-10-11T01:38:14.695Z,45.23
2018-10-11T01:39:18.804Z,48.25
2018-10-11T01:40:26.295Z,45.48
2018-10-11T01:41:30.342Z,46.63
2018-10-11T01:42:34.434Z,45.25
2018-10-11T01:43:38.710Z,40.28
2018-10-11T01:44:43.139Z,42.53
2018-10-11T01:45:47.403Z,45.45
2018-10-11T01:46:51.335Z,46.95
2018-10-11T01:47:55.273Z,44.35
2018-10-11T01:48:59.702Z,45.50
2018-10-11T01:50:03.735Z,44.93
2018-10-11T01:51:07.886Z,47.10
2018-10-11T01:52:12.247Z,44.90
2018-10-11T01:53:16.324Z,46.75
2018-10-11T01:54:20.358Z,47.53
2018-10-11T01:55:25.313Z,43.10
2018-10-11T01:56:33.712Z,44.95
2018-10-11T01:57:37.743Z,44.65
2018-10-11T01:58:41.787Z,47.25
2018-10-11T01:59:45.795Z,44.53
2018-10-11T02:00:49.802Z,41.95
2018-10-11T02:01:53.906Z,43.42
2018-10-11T02:02:59.248Z,44.20
2018-10-11T02:04:03.547Z,44.35
2018-10-11T02:05:07.975Z,42.17
2018-10-11T02:06:12.086Z,45.10
2018-10-11T02:07:16.100Z,43.23
2018-10-11T02:08:20.036Z,41.60
2018-10-11T02:09:26.488Z,43.42
2018-10-11T02:10:30.596Z,44.08
2018-10-11T02:11:34.523Z,43.87
2018-10-11T02:12:38.520Z,44.55
2018-10-11T02:13:42.596Z,44.93
2018-10-11T02:14:46.663Z,44.27
2018-10-11T02:15:50.763Z,43.42
2018-10-11T02:16:57.000Z,44.83
2018-10-11T02:18:01.043Z,47.73
2018-10-11T02:19:05.076Z,46.25
2018-10-11T02:20:09.160Z,45.55
2018-10-11T02:21:13.518Z,43.30
2018-10-11T02:22:17.855Z,43.78
2018-10-11T02:23:21.947Z,41.02
2018-10-11T02:24:26.174Z,44.20
2018-10-11T02:25:30.239Z,41.33
2018-10-11T02:26:34.532Z,41.73
2018-10-11T02:27:38.583Z,43.58
2018-10-11T02:28:42.582Z,44.50
2018-10-11T02:29:46.660Z,43.33
2018-10-11T02:30:50.674Z,42.23
2018-10-11T02:31:54.859Z,42.93
2018-10-11T02:32:58.827Z,43.35
2018-10-11T02:34:02.888Z,41.68
2018-10-11T02:35:12.621Z,42.17
2018-10-11T02:36:16.576Z,41.00
2018-10-11T02:37:20.507Z,43.35
2018-10-11T02:38:31.695Z,41.60
2018-10-11T02:39:35.990Z,44.15
2018-10-11T02:40:40.289Z,44.00
2018-10-11T02:41:44.196Z,42.43
2018-10-11T02:42:48.161Z,42.30
2018-10-11T02:43:52.105Z,43.85
2018-10-11T02:44:56.215Z,42.70
2018-10-11T02:46:00.714Z,43.98
2018-10-11T02:47:04.660Z,43.05
2018-10-11T02:48:09.079Z,42.48
2018-10-11T02:49:13.107Z,46.92
2018-10-11T02:50:17.176Z,47.62
2018-10-11T02:51:21.164Z,45.30
2018-10-11T02:52:25.276Z,43.63
2018-10-11T02:53:29.468Z,45.55
2018-10-11T02:54:33.679Z,44.42
2018-10-11T02:55:37.883Z,45.90
2018-10-11T02:56:42.407Z,43.87
2018-10-11T02:57:57.337Z,43.10
2018-10-11T02:59:12.227Z,45.35
2018-10-11T03:00:16.426Z,45.33
2018-10-11T03:01:20.851Z,44.18
2018-10-11T03:02:25.524Z,47.30
2018-10-11T03:03:30.281Z,45.73
2018-10-11T03:04:35.681Z,46.20
2018-10-11T03:05:46.617Z,43.70
2018-10-11T03:06:52.053Z,45.58
2018-10-11T03:07:56.378Z,42.95
2018-10-11T03:09:00.794Z,43.73
2018-10-11T03:10:09.508Z,44.88
2018-10-11T03:11:15.463Z,45.30
2018-10-11T03:12:20.422Z,47.40
2018-10-11T03:13:24.384Z,54.50
2018-10-11T03:14:34.514Z,54.63
2018-10-11T03:15:38.826Z,48.70
2018-10-11T03:16:43.000Z,47.48
2018-10-11T03:17:47.096Z,45.60
2018-10-11T03:18:51.240Z,48.90
2018-10-11T03:19:57.104Z,48.38
2018-10-11T03:21:01.442Z,46.75
2018-10-11T03:22:05.489Z,46.88
2018-10-11T03:23:10.338Z,47.40
2018-10-11T03:24:14.389Z,51.02
2018-10-11T03:25:18.374Z,51.33
2018-10-11T03:26:22.785Z,49.90
2018-10-11T03:27:26.823Z,45.73
2018-10-11T03:28:30.902Z,48.52
2018-10-11T03:29:34.875Z,46.83
2018-10-11T03:30:39.000Z,47.38
2018-10-11T03:31:42.972Z,51.13
2018-10-11T03:32:46.974Z,47.58
2018-10-11T03:33:50.991Z,49.83
2018-10-11T03:34:55.069Z,50.60
2018-10-11T03:35:59.127Z,51.10
2018-10-11T03:37:03.194Z,47.50
2018-10-11T03:38:07.307Z,51.23
2018-10-11T03:39:11.419Z,49.38
2018-10-11T03:40:15.339Z,55.05
2018-10-11T03:41:20.352Z,59.48
2018-10-11T03:42:24.401Z,53.87
2018-10-11T03:43:28.487Z,64.87
2018-10-11T03:44:32.483Z,51.20
2018-10-11T03:45:51.737Z,49.48
2018-10-11T03:48:21.715Z,47.25
2018-10-11T03:49:26.278Z,52.23
2018-10-11T03:50:30.374Z,51.92
2018-10-11T03:51:34.407Z,56.50
2018-10-11T03:52:38.477Z,56.65
2018-10-11T03:53:42.514Z,54.38
2018-10-11T03:54:49.444Z,55.25
2018-10-11T03:55:54.405Z,52.58
2018-10-11T03:56:58.436Z,51.95
2018-10-11T03:58:02.490Z,49.42
2018-10-11T03:59:06.899Z,49.35
2018-10-11T04:00:11.117Z,53.68
2018-10-11T04:01:15.526Z,58.28
2018-10-11T04:02:19.570Z,64.17
2018-10-11T04:03:23.691Z,80.38
2018-10-11T04:04:27.966Z,60.23
2018-10-11T04:05:31.986Z,88.72
2018-10-11T04:06:36.130Z,68.00
2018-10-11T04:07:40.266Z,87.62
2018-10-11T04:08:44.387Z,74.03
2018-10-11T04:09:48.325Z,62.03
2018-10-11T04:10:52.338Z,57.78
2018-10-11T04:11:56.605Z,63.30
2018-10-11T04:13:00.729Z,74.90
2018-10-11T04:14:04.761Z,56.73
2018-10-11T04:15:09.274Z,90.45
2018-10-11T04:16:13.383Z,56.80
2018-10-11T04:17:17.523Z,88.67
2018-10-11T04:18:21.564Z,97.37
2018-10-11T04:19:25.659Z,103.42
2018-10-11T04:20:30.539Z,96.15
2018-10-11T04:21:34.549Z,89.00
2018-10-11T04:22:39.629Z,55.28
2018-10-11T04:23:43.690Z,81.85
2018-10-11T04:24:48.416Z,96.03
2018-10-11T04:25:52.446Z,107.92
2018-10-11T04:26:56.599Z,103.42
2018-10-11T04:31:30.817Z,75.40
2018-10-11T04:32:34.860Z,73.07
2018-10-11T04:33:38.903Z,81.87
2018-10-11T04:34:43.089Z,80.40
2018-10-11T04:35:47.223Z,77.35
2018-10-11T04:36:51.322Z,76.35
2018-10-11T04:37:55.740Z,74.12
2018-10-11T04:38:59.926Z,73.90
2018-10-11T04:40:04.105Z,75.57
2018-10-11T04:41:08.233Z,71.80
2018-10-11T04:42:17.491Z,72.62
2018-10-11T04:43:23.644Z,70.28
2018-10-11T04:44:28.078Z,70.83
2018-10-11T04:45:32.085Z,71.37
2018-10-11T04:46:36.087Z,69.37
2018-10-11T04:47:45.329Z,69.70
2018-10-11T04:48:49.491Z,69.10
2018-10-11T04:49:53.536Z,70.87
2018-10-11T04:50:57.649Z,68.17
2018-10-11T04:52:06.619Z,67.55
2018-10-11T04:53:11.368Z,67.67
2018-10-11T04:54:20.633Z,64.45
2018-10-11T04:55:24.751Z,63.37
2018-10-11T04:56:29.445Z,61.88
2018-10-11T04:57:38.363Z,66.57
2018-10-11T04:58:42.456Z,62.62
2018-10-11T04:59:46.591Z,61.98
2018-10-11T05:00:50.684Z,64.75
2018-10-11T05:01:54.827Z,62.43
2018-10-11T05:02:58.955Z,62.73
2018-10-11T05:04:03.083Z,61.88
2018-10-11T05:05:07.569Z,60.12
2018-10-11T05:06:11.747Z,61.70
2018-10-11T05:07:15.977Z,61.63
2018-10-11T05:08:20.037Z,59.40
2018-10-11T05:09:24.283Z,59.80
2018-10-11T05:10:28.486Z,60.28
2018-10-11T05:11:32.581Z,59.83
2018-10-11T05:12:37.403Z,60.33
2018-10-11T05:13:47.238Z,59.48
2018-10-11T05:14:51.879Z,58.20
2018-10-11T05:15:56.088Z,60.00
2018-10-11T05:17:00.473Z,59.05
2018-10-11T05:18:05.916Z,58.68
2018-10-11T05:19:10.767Z,59.05
2018-10-11T05:20:15.418Z,62.17
2018-10-11T05:21:19.700Z,59.13
2018-10-11T05:22:23.915Z,60.52
2018-10-11T05:23:28.207Z,59.85
2018-10-11T05:24:32.455Z,60.95
2018-10-11T05:25:36.692Z,60.93
2018-10-11T05:26:40.886Z,62.50
2018-10-11T05:27:45.223Z,59.45
2018-10-11T05:28:49.518Z,58.30
2018-10-11T05:29:53.704Z,60.90
2018-10-11T05:30:57.969Z,59.98
2018-10-11T05:32:02.221Z,54.63
2018-10-11T05:33:06.576Z,51.13
2018-10-11T05:34:10.781Z,51.73
2018-10-11T05:35:14.781Z,56.13
2018-10-11T05:36:18.961Z,58.70
2018-10-11T05:37:23.451Z,59.35
2018-10-11T05:38:27.652Z,63.40
2018-10-11T05:39:32.056Z,59.48
2018-10-11T05:40:38.191Z,60.75
2018-10-11T05:41:42.660Z,60.73
2018-10-11T05:42:47.166Z,61.88
2018-10-11T05:43:51.608Z,60.30
2018-10-11T05:45:03.846Z,61.45
2018-10-11T05:46:10.556Z,60.88
2018-10-11T05:47:15.222Z,62.15
2018-10-11T05:48:21.142Z,61.08
2018-10-11T05:49:26.413Z,61.53
2018-10-11T05:50:30.588Z,60.08
2018-10-11T05:51:35.076Z,61.50
2018-10-11T05:52:41.625Z,60.83
2018-10-11T05:53:48.318Z,61.35
2018-10-11T05:54:52.684Z,63.10
2018-10-11T05:55:57.830Z,59.65
2018-10-11T05:57:02.172Z,63.70
2018-10-11T05:58:07.357Z,61.33
2018-10-11T05:59:12.081Z,59.57
2018-10-11T06:00:16.308Z,60.33
2018-10-11T06:01:20.929Z,59.13
2018-10-11T06:02:25.645Z,60.78
2018-10-11T06:03:30.035Z,58.30
2018-10-11T06:04:34.505Z,59.35
2018-10-11T06:05:38.843Z,57.30
2018-10-11T06:06:46.370Z,56.92
2018-10-11T06:07:50.732Z,57.78
2018-10-11T06:08:56.197Z,57.15
2018-10-11T06:10:00.346Z,57.23
2018-10-11T06:11:05.118Z,55.95
2018-10-11T06:12:09.378Z,55.35
2018-10-11T06:13:14.225Z,54.55
2018-10-11T06:14:19.668Z,54.77
2018-10-11T06:15:24.346Z,54.18
2018-10-11T06:16:28.747Z,53.68
2018-10-11T06:17:33.075Z,53.80
2018-10-11T06:18:37.639Z,53.17
2018-10-11T06:19:42.138Z,51.65
2018-10-11T06:20:46.318Z,51.37
2018-10-11T06:21:50.711Z,53.73
2018-10-11T06:22:58.946Z,51.42
2018-10-11T06:24:03.087Z,51.60
2018-10-11T06:25:07.471Z,52.88
2018-10-11T06:26:12.375Z,51.05
2018-10-11T06:27:16.694Z,50.73
2018-10-11T06:28:21.030Z,51.83
2018-10-11T06:29:25.616Z,50.58
2018-10-11T06:30:31.145Z,50.83
2018-10-11T06:31:35.303Z,50.47
2018-10-11T06:32:39.660Z,49.65
2018-10-11T06:33:45.006Z,49.30
2018-10-11T06:34:49.113Z,46.58
2018-10-11T06:35:53.497Z,50.38
2018-10-11T06:36:58.667Z,47.75
2018-10-11T06:38:03.835Z,48.15
2018-10-11T06:39:09.824Z,47.65
2018-10-11T06:40:14.128Z,48.02
2018-10-11T06:41:18.631Z,47.70
2018-10-11T06:42:23.087Z,46.20
2018-10-11T06:43:27.437Z,47.23
2018-10-11T06:44:31.818Z,46.23
2018-10-11T06:45:36.133Z,46.18
2018-10-11T06:46:40.457Z,44.48
2018-10-11T06:47:46.119Z,45.10
2018-10-11T06:48:50.375Z,45.08
2018-10-11T06:49:54.730Z,45.30
2018-10-11T06:50:58.950Z,45.20
2018-10-11T06:52:03.363Z,46.13
2018-10-11T06:53:09.683Z,43.95
2018-10-11T06:54:13.767Z,46.63
2018-10-11T06:55:18.075Z,45.73
2018-10-11T06:56:22.362Z,43.68
2018-10-11T06:57:26.601Z,46.50
2018-10-11T06:58:30.821Z,43.02
2018-10-11T06:59:35.301Z,45.40
2018-10-11T07:00:39.612Z,45.63
2018-10-11T07:01:43.753Z,44.42
2018-10-11T07:02:48.019Z,43.68
2018-10-11T07:03:52.165Z,43.92
2018-10-11T07:04:56.203Z,42.15
2018-10-11T07:06:00.399Z,42.10
2018-10-11T07:07:04.655Z,41.42
2018-10-11T07:08:08.803Z,42.33
2018-10-11T07:09:17.224Z,42.33
2018-10-11T07:10:21.645Z,42.58
2018-10-11T07:11:25.681Z,42.33
2018-10-11T07:12:29.887Z,42.45
2018-10-11T07:13:39.198Z,45.33
2018-10-11T07:14:43.252Z,42.67
2018-10-11T07:15:48.427Z,43.65
2018-10-11T07:16:52.738Z,45.45
2018-10-11T07:17:56.865Z,44.98
2018-10-11T07:19:01.097Z,45.35
2018-10-11T07:20:10.505Z,45.52
2018-10-11T07:21:14.577Z,45.05
2018-10-11T07:22:18.696Z,43.70
2018-10-11T07:23:23.510Z,43.83
2018-10-11T07:24:31.892Z,46.02
2018-10-11T07:25:35.972Z,43.73
2018-10-11T07:26:39.978Z,44.48
2018-10-11T07:27:45.207Z,44.25
2018-10-11T07:28:49.229Z,42.90
2018-10-11T07:29:53.569Z,42.60
2018-10-11T07:30:57.595Z,46.30
2018-10-11T07:32:01.775Z,45.98
2018-10-11T07:33:05.995Z,45.08
2018-10-11T07:34:10.029Z,44.98
2018-10-11T07:35:14.305Z,44.10
2018-10-11T07:36:18.345Z,43.98
2018-10-11T07:37:22.442Z,44.50
2018-10-11T07:38:26.687Z,43.60
2018-10-11T07:39:30.692Z,43.35
2018-10-11T07:40:34.837Z,45.75
2018-10-11T07:41:38.839Z,42.95
2018-10-11T07:42:42.847Z,45.43
2018-10-11T07:43:47.150Z,45.52
2018-10-11T07:44:51.297Z,45.67
2018-10-11T07:45:55.687Z,45.73
2018-10-11T07:46:59.776Z,42.33
2018-10-11T07:48:03.911Z,43.48
2018-10-11T07:49:08.684Z,44.80
2018-10-11T07:50:12.882Z,43.83
2018-10-11T07:51:16.935Z,41.73
2018-10-11T07:52:20.917Z,43.08
2018-10-11T07:53:25.526Z,42.00
2018-10-11T07:54:33.959Z,44.50
2018-10-11T07:55:38.016Z,42.27
2018-10-11T07:56:42.150Z,44.25
2018-10-11T07:57:46.177Z,43.20
2018-10-11T07:58:50.244Z,41.73
2018-10-11T07:59:54.299Z,42.30
2018-10-11T08:00:58.366Z,42.80
2018-10-11T08:02:02.815Z,43.33
2018-10-11T08:03:06.983Z,42.33
2018-10-11T08:04:11.006Z,42.30
2018-10-11T08:05:15.055Z,42.65
2018-10-11T08:06:19.104Z,41.45
2018-10-11T08:07:23.243Z,41.85
2018-10-11T08:08:27.954Z,41.50
2018-10-11T08:09:31.922Z,41.83
2018-10-11T08:10:36.097Z,41.20
2018-10-11T08:11:40.168Z,39.05
2018-10-11T08:12:44.127Z,40.43
2018-10-11T08:13:48.137Z,38.75
2018-10-11T08:14:52.163Z,39.92
2018-10-11T08:15:56.340Z,39.85
2018-10-11T08:17:00.548Z,38.53
2018-10-11T08:18:04.811Z,39.58
2018-10-11T08:19:09.266Z,41.25
2018-10-11T08:20:13.262Z,40.03
2018-10-11T08:21:17.270Z,38.85
2018-10-11T08:22:21.359Z,39.20
2018-10-11T08:23:25.547Z,39.92
2018-10-11T08:24:29.721Z,39.42
2018-10-11T08:25:34.189Z,39.75
2018-10-11T08:26:37.882Z,39.20
2018-10-11T08:27:41.922Z,39.55
2018-10-11T08:28:45.959Z,38.75
2018-10-11T08:29:49.950Z,39.80
2018-10-11T08:30:54.641Z,39.63
2018-10-11T08:32:05.197Z,39.40
2018-10-11T08:33:09.434Z,37.48
2018-10-11T08:34:13.660Z,38.23
2018-10-11T08:35:17.695Z,39.40
2018-10-11T08:36:21.905Z,40.20
2018-10-11T08:37:25.939Z,36.75
2018-10-11T08:38:30.209Z,37.67
2018-10-11T08:39:34.418Z,36.83
2018-10-11T08:40:38.425Z,38.02
2018-10-11T08:41:42.383Z,37.17
2018-10-11T08:42:48.319Z,37.33
2018-10-11T08:43:52.468Z,38.95
2018-10-11T08:44:56.584Z,38.30
2018-10-11T08:46:01.004Z,37.20
2018-10-11T08:47:05.122Z,36.98
2018-10-11T08:48:09.789Z,35.88
2018-10-11T08:49:14.162Z,36.40
2018-10-11T08:50:18.283Z,36.23
2018-10-11T08:51:22.217Z,35.48
2018-10-11T08:52:26.295Z,37.05
2018-10-11T08:53:30.322Z,35.20
2018-10-11T08:54:39.631Z,36.15
2018-10-11T08:55:43.683Z,34.30
2018-10-11T08:56:48.414Z,34.92
2018-10-11T08:57:52.546Z,34.08
2018-10-11T08:58:56.614Z,34.38
2018-10-11T09:00:00.576Z,33.78
2018-10-11T09:01:04.659Z,32.10
2018-10-11T09:02:08.767Z,30.52
2018-10-11T09:03:13.073Z,30.75
2018-10-11T09:04:17.542Z,30.72
2018-10-11T09:05:21.575Z,30.32
2018-10-11T09:06:25.927Z,31.82
2018-10-11T09:07:30.109Z,31.90
2018-10-11T09:08:34.504Z,30.85
2018-10-11T09:09:38.730Z,33.40
2018-10-11T09:10:42.832Z,33.05
2018-10-11T09:11:46.817Z,33.78
2018-10-11T09:12:51.064Z,31.70
2018-10-11T09:13:55.088Z,31.25
2018-10-11T09:15:01.062Z,32.60
2018-10-11T09:16:05.024Z,30.75
2018-10-11T09:17:09.191Z,32.20
2018-10-11T09:18:13.350Z,31.73
2018-10-11T09:19:17.463Z,31.75
2018-10-11T09:20:21.693Z,30.43
2018-10-11T09:21:25.876Z,30.27
2018-10-11T09:22:30.052Z,31.23
2018-10-11T09:23:34.089Z,27.52
2018-10-11T09:24:38.168Z,27.13
2018-10-11T09:25:43.181Z,27.85
2018-10-11T09:26:47.249Z,26.10
2018-10-11T09:27:51.527Z,29.40
2018-10-11T09:28:55.551Z,28.02
2018-10-11T09:29:59.845Z,28.65
2018-10-11T09:31:03.840Z,30.40
2018-10-11T09:32:07.982Z,28.50
2018-10-11T09:33:12.257Z,27.98
2018-10-11T09:34:16.381Z,28.45
2018-10-11T09:35:21.863Z,28.50
2018-10-11T09:36:25.936Z,27.22
2018-10-11T09:37:29.881Z,27.65
2018-10-11T09:38:34.167Z,28.32
2018-10-11T09:39:38.820Z,29.27
2018-10-11T09:40:43.006Z,28.73
2018-10-11T09:41:47.197Z,29.75
2018-10-11T09:42:51.307Z,29.55
2018-10-11T09:43:55.451Z,29.42
2018-10-11T09:44:59.545Z,29.30
2018-10-11T09:46:03.599Z,29.70
2018-10-11T09:47:08.267Z,30.72
2018-10-11T09:48:12.348Z,27.75
2018-10-11T09:49:16.417Z,29.00
2018-10-11T09:50:20.537Z,28.83
2018-10-11T09:51:27.208Z,30.40
2018-10-11T09:52:31.350Z,29.48
2018-10-11T09:53:35.420Z,30.32
2018-10-11T09:54:39.494Z,30.10
2018-10-11T09:55:43.531Z,30.40
2018-10-11T09:57:24.984Z,30.45
2018-10-11T09:58:29.305Z,26.17
2018-10-11T09:59:33.313Z,29.00
2018-10-11T10:00:42.478Z,29.07
2018-10-11T10:01:46.997Z,29.30
2018-10-11T10:02:51.516Z,28.73
2018-10-11T10:03:55.557Z,27.65
2018-10-11T10:05:01.907Z,28.75
2018-10-11T10:06:06.064Z,25.97
2018-10-11T10:07:15.671Z,27.80
2018-10-11T10:08:19.834Z,27.52
2018-10-11T10:09:24.157Z,27.17
2018-10-11T10:10:28.461Z,27.37
2018-10-11T10:11:32.500Z,26.42
2018-10-11T10:12:36.922Z,27.02
2018-10-11T10:13:40.969Z,28.52
2018-10-11T10:14:45.730Z,28.07
2018-10-11T10:15:49.877Z,27.47
2018-10-11T10:16:54.029Z,27.07
2018-10-11T10:17:58.152Z,29.00
2018-10-11T10:19:02.134Z,26.45
2018-10-11T10:20:07.001Z,26.23
2018-10-11T10:21:16.436Z,25.43
2018-10-11T10:22:20.438Z,27.07
2018-10-11T10:23:24.836Z,26.87
2018-10-11T10:24:29.155Z,27.75
2018-10-11T10:25:33.203Z,27.17
2018-10-11T10:26:37.321Z,27.25
2018-10-11T10:27:41.625Z,26.77
2018-10-11T10:28:45.702Z,25.92
2018-10-11T10:29:49.872Z,25.95
2018-10-11T10:30:59.421Z,27.25
2018-10-11T10:32:03.897Z,26.40
2018-10-11T10:33:08.394Z,27.35
2018-10-11T10:34:12.970Z,27.87
2018-10-11T10:35:17.094Z,28.38
2018-10-11T10:36:21.267Z,27.13
2018-10-11T10:37:30.738Z,27.30
2018-10-11T10:38:34.890Z,26.65
2018-10-11T10:39:38.984Z,27.13
2018-10-11T10:40:43.167Z,27.22
2018-10-11T10:41:47.507Z,27.02
2018-10-11T10:42:51.661Z,26.60
2018-10-11T10:44:01.403Z,26.75
2018-10-11T10:45:06.199Z,28.05
2018-10-11T10:46:10.314Z,26.05
2018-10-11T10:47:14.459Z,26.65
2018-10-11T10:48:18.421Z,27.73
2018-10-11T10:49:22.483Z,26.27
2018-10-11T10:50:26.628Z,27.50
2018-10-11T10:51:31.043Z,27.37
2018-10-11T10:52:35.153Z,28.47
2018-10-11T10:53:39.142Z,26.95
2018-10-11T10:54:43.258Z,26.05
2018-10-11T10:55:47.315Z,25.02
2018-10-11T10:56:52.154Z,25.55
2018-10-11T10:57:56.300Z,28.05
2018-10-11T10:59:00.364Z,27.13
2018-10-11T11:00:04.659Z,26.60
2018-10-11T11:01:09.093Z,25.08
2018-10-11T11:02:13.099Z,25.77
2018-10-11T11:03:17.382Z,26.75
2018-10-11T11:04:21.956Z,26.75
2018-10-11T11:05:26.097Z,26.25
2018-10-11T11:06:30.103Z,26.87
2018-10-11T11:07:34.152Z,26.80
2018-10-11T11:08:38.167Z,27.25
2018-10-11T11:09:42.229Z,25.12
2018-10-11T11:10:46.346Z,26.77
2018-10-11T11:11:50.442Z,27.30
2018-10-11T11:12:54.583Z,28.00
2018-10-11T11:13:58.522Z,27.33
2018-10-11T11:15:02.619Z,26.70
2018-10-11T11:16:06.938Z,26.20
2018-10-11T11:17:11.085Z,27.40
2018-10-11T11:18:15.128Z,26.90
2018-10-11T11:19:19.137Z,25.63
2018-10-11T11:20:23.622Z,26.00
2018-10-11T11:21:28.193Z,25.67
2018-10-11T11:22:32.311Z,27.93
2018-10-11T11:23:36.311Z,25.70
2018-10-11T11:24:40.244Z,27.37
2018-10-11T11:25:44.199Z,27.40
2018-10-11T11:26:48.324Z,26.07
2018-10-11T11:27:52.378Z,27.10
2018-10-11T11:28:56.693Z,25.67
2018-10-11T11:30:00.733Z,26.67
2018-10-11T11:31:10.251Z,27.00
2018-10-11T11:32:14.468Z,27.67
2018-10-11T11:33:18.549Z,30.20
2018-10-11T11:34:22.925Z,27.23
2018-10-11T11:35:26.987Z,26.47
2018-10-11T11:36:31.016Z,26.33
2018-10-11T11:37:35.228Z,27.83
2018-10-11T11:38:39.143Z,26.33
2018-10-11T11:39:43.335Z,27.07
2018-10-11T11:40:47.282Z,26.17
2018-10-11T11:41:51.403Z,25.67
2018-10-11T11:42:55.526Z,26.40
2018-10-11T11:43:59.536Z,25.93
2018-10-11T11:45:03.508Z,26.40
2018-10-11T11:46:08.099Z,25.50
2018-10-11T11:47:12.098Z,25.03
2018-10-11T11:48:16.146Z,23.67
2018-10-11T11:49:20.096Z,24.70
2018-10-11T11:50:24.180Z,24.77
2018-10-11T11:51:28.344Z,24.43
2018-10-11T11:52:32.303Z,25.20
2018-10-11T11:53:37.688Z,26.97
2018-10-11T11:54:42.093Z,25.27
2018-10-11T11:55:46.079Z,25.33
2018-10-11T11:56:50.879Z,24.47
2018-10-11T11:57:55.069Z,24.80
2018-10-11T11:58:59.168Z,24.17
2018-10-11T12:00:03.138Z,23.80
2018-10-11T12:01:07.865Z,24.57
2018-10-11T12:02:11.844Z,24.93
2018-10-11T12:03:15.861Z,25.30
2018-10-11T12:04:20.184Z,25.83
2018-10-11T12:05:24.381Z,23.93
2018-10-11T12:06:28.392Z,24.07
2018-10-11T12:07:32.464Z,24.87
2018-10-11T12:08:37.071Z,25.30
2018-10-11T12:09:41.137Z,21.60
2018-10-11T12:10:45.257Z,21.27
2018-10-11T12:11:49.342Z,20.93
2018-10-11T12:12:57.660Z,20.67
2018-10-11T12:14:03.899Z,21.47
2018-10-11T12:15:08.419Z,20.50
2018-10-11T12:16:12.585Z,19.87
2018-10-11T12:17:16.784Z,20.47
2018-10-11T12:18:21.055Z,20.03
2018-10-11T12:19:25.252Z,19.83
2018-10-11T12:20:31.701Z,19.53
2018-10-11T12:21:35.998Z,20.63
2018-10-11T12:22:40.157Z,20.20
2018-10-11T12:23:44.360Z,19.83
2018-10-11T12:24:48.597Z,19.80
2018-10-11T12:25:52.819Z,18.83
2018-10-11T12:26:57.774Z,20.27
2018-10-11T12:28:01.957Z,19.57
2018-10-11T12:29:06.674Z,19.60
2018-10-11T12:30:10.668Z,18.37
2018-10-11T12:31:14.863Z,18.33
2018-10-11T12:32:19.059Z,18.67
2018-10-11T12:33:23.103Z,19.30
2018-10-11T12:34:27.581Z,19.37
2018-10-11T12:35:32.078Z,19.40
2018-10-11T12:36:36.369Z,18.90
2018-10-11T12:37:40.565Z,18.57
2018-10-11T12:38:44.800Z,18.23
2018-10-11T12:39:49.150Z,17.37
2018-10-11T12:40:53.464Z,18.20
2018-10-11T12:41:57.725Z,19.43
2018-10-11T12:43:01.833Z,18.90
2018-10-11T12:44:06.097Z,20.03
2018-10-11T12:45:11.195Z,18.43
2018-10-11T12:46:15.858Z,17.23
2018-10-11T12:47:20.042Z,18.73
2018-10-11T12:48:24.188Z,18.53
2018-10-11T12:49:28.489Z,18.03
2018-10-11T12:50:32.575Z,19.33
2018-10-11T12:51:37.061Z,17.67
2018-10-11T12:52:41.717Z,17.43
2018-10-11T12:53:48.302Z,18.07
2018-10-11T12:54:50.247Z,19.97
2018-10-11T12:55:54.512Z,19.47
2018-10-11T12:56:58.930Z,17.60
2018-10-11T12:58:03.463Z,17.13
2018-10-11T12:59:07.535Z,17.93
2018-10-11T13:00:13.747Z,18.57
2018-10-11T13:01:21.125Z,17.37
2018-10-11T13:02:22.063Z,17.00
2018-10-11T13:03:26.523Z,17.20
2018-10-11T13:04:30.822Z,16.63
2018-10-11T13:05:35.019Z,16.93
2018-10-11T13:06:39.112Z,17.37
2018-10-11T13:07:43.527Z,18.03
2018-10-11T13:08:47.665Z,17.00
2018-10-11T13:09:51.765Z,17.27
2018-10-11T13:10:55.858Z,15.80
2018-10-11T13:12:00.021Z,17.37
2018-10-11T13:13:04.257Z,17.27
2018-10-11T13:14:08.370Z,16.10
2018-10-11T13:15:12.457Z,16.53
2018-10-11T13:16:16.534Z,17.03
2018-10-11T13:17:20.538Z,16.93
2018-10-11T13:18:24.604Z,16.87
2018-10-11T13:19:28.845Z,16.23
2018-10-11T13:20:32.860Z,16.03
2018-10-11T13:21:37.355Z,16.37
2018-10-11T13:22:41.483Z,16.07
2018-10-11T13:23:45.707Z,14.43
2018-10-11T13:24:49.850Z,16.03
2018-10-11T13:25:53.821Z,15.77
2018-10-11T13:26:57.909Z,16.43
2018-10-11T13:28:02.077Z,15.83
2018-10-11T13:29:06.122Z,15.80
2018-10-11T13:30:10.295Z,15.27
2018-10-11T13:31:14.302Z,16.40
2018-10-11T13:32:18.282Z,15.37
2018-10-11T13:33:22.299Z,15.40
2018-10-11T13:34:26.347Z,15.50
2018-10-11T13:35:30.655Z,16.00
2018-10-11T13:36:34.668Z,15.60
2018-10-11T13:37:38.819Z,15.40
2018-10-11T13:38:42.782Z,15.30
2018-10-11T13:39:52.025Z,14.33
2018-10-11T13:40:54.301Z,14.47
2018-10-11T13:41:55.306Z,14.67
2018-10-11T13:43:00.349Z,15.13
2018-10-11T13:44:04.623Z,12.97
2018-10-11T13:45:08.719Z,14.58
2018-10-11T13:46:12.850Z,14.70
2018-10-11T13:47:16.954Z,14.17
2018-10-11T13:48:21.305Z,13.90
2018-10-11T13:49:25.344Z,15.57
2018-10-11T13:50:29.444Z,13.75
2018-10-11T13:51:33.466Z,14.10
2018-10-11T13:52:37.530Z,13.57
2018-10-11T13:53:42.862Z,13.62
2018-10-11T13:54:46.003Z,13.70
2018-10-11T13:55:53.618Z,13.87
2018-10-11T13:56:58.015Z,15.17
2018-10-11T13:57:58.298Z,14.83
2018-10-11T13:59:06.964Z,13.57